createdAt,value
2023-09-06T00:04:49.672Z,69.84
2023-09-06T00:09:54.855Z,70.06
2023-09-06T00:14:58.882Z,68.49
2023-09-06T00:20:02.156Z,69.65
2023-09-06T00:25:09.343Z,68.69
2023-09-06T00:30:21.963Z,67.48
2023-09-06T00:35:27.899Z,68.13
2023-09-06T00:40:31.205Z,69.89
2023-09-06T00:45:51.985Z,69.87
2023-09-06T00:50:57.824Z,69.55
2023-09-06T00:56:04.732Z,70.31
2023-09-06T01:01:07.676Z,70.73
2023-09-06T01:06:21.970Z,70.89
2023-09-06T01:11:28.894Z,70.87
2023-09-06T01:16:43.274Z,68.73
2023-09-06T01:22:01.965Z,68.16
2023-09-06T01:27:07.212Z,68.44
2023-09-06T01:32:12.122Z,68.35
2023-09-06T01:37:15.018Z,69.37
2023-09-06T01:42:23.716Z,68.53
2023-09-06T01:47:31.173Z,68.89
2023-09-06T01:52:39.340Z,69.18
2023-09-06T01:57:42.251Z,69.28
2023-09-06T02:02:53.490Z,69.95
2023-09-06T02:07:56.515Z,70.79
2023-09-06T02:13:00.755Z,70.98
2023-09-06T02:18:04.007Z,71.15
2023-09-06T02:23:09.432Z,69.48
2023-09-06T02:28:12.225Z,69.36
2023-09-06T02:33:19.990Z,69.64
2023-09-06T02:38:24.770Z,71.65
2023-09-06T02:43:27.515Z,72.07
2023-09-06T02:48:35.958Z,72.05
2023-09-06T02:53:45.242Z,71.16
2023-09-06T02:58:48.933Z,69.88
2023-09-06T03:03:52.833Z,69.53
2023-09-06T03:09:00.679Z,69.66
2023-09-06T03:14:05.803Z,69.65
2023-09-06T03:19:11.424Z,69.84
2023-09-06T03:24:14.984Z,70.02
2023-09-06T03:29:18.972Z,70.02
2023-09-06T03:34:23.191Z,70.78
2023-09-06T03:39:31.955Z,72.08
2023-09-06T03:44:41.381Z,72.20
2023-09-06T03:49:46.277Z,71.46
2023-09-06T03:54:51.872Z,69.88
2023-09-06T04:00:26.118Z,70.06
2023-09-06T04:05:35.866Z,69.86
2023-09-06T04:10:41.600Z,70.84
2023-09-06T04:15:46.323Z,70.49
2023-09-06T04:21:01.258Z,68.75
2023-09-06T04:26:12.230Z,67.18
2023-09-06T04:31:15.003Z,65.09
2023-09-06T04:36:20.212Z,62.85
2023-09-06T04:41:25.409Z,60.55
2023-09-06T04:46:28.416Z,58.38
2023-09-06T04:51:32.667Z,57.62
2023-09-06T04:56:40.799Z,56.48
2023-09-06T05:01:43.852Z,53.78
2023-09-06T05:06:48.871Z,53.03
2023-09-06T05:11:52.040Z,50.16
2023-09-06T05:16:58.534Z,49.28
2023-09-06T05:22:05.028Z,48.25
2023-09-06T05:27:09.069Z,47.34
2023-09-06T05:38:06.699Z,44.09
2023-09-06T05:43:09.661Z,42.49
2023-09-06T05:48:15.045Z,41.17
2023-09-06T05:53:17.736Z,39.90
2023-09-06T05:58:22.738Z,38.66
2023-09-06T06:03:40.263Z,38.15
2023-09-06T06:08:46.426Z,37.51
2023-09-06T06:14:00.335Z,36.38
2023-09-06T06:19:15.945Z,35.84
2023-09-06T06:24:19.933Z,35.51
2023-09-06T06:29:25.474Z,35.00
2023-09-06T06:34:30.601Z,34.63
2023-09-06T06:39:41.409Z,34.07
2023-09-06T06:44:49.226Z,33.30
2023-09-06T06:49:56.173Z,32.58
2023-09-06T06:54:59.193Z,32.00
2023-09-06T07:00:09.290Z,31.24
2023-09-06T07:05:13.754Z,30.76
2023-09-06T07:10:19.096Z,30.48
2023-09-06T07:15:22.054Z,29.87
2023-09-06T07:20:27.794Z,29.34
2023-09-06T07:25:34.977Z,29.13
2023-09-06T07:30:37.804Z,28.67
2023-09-06T07:35:43.318Z,28.34
2023-09-06T07:40:46.083Z,28.19
2023-09-06T07:45:48.983Z,28.33
2023-09-06T08:08:59.729Z,27.37
2023-09-06T08:14:07.156Z,27.01
2023-09-06T08:19:15.376Z,27.16
2023-09-06T08:24:23.740Z,27.23
2023-09-06T08:29:30.118Z,27.12
2023-09-06T08:34:35.366Z,27.14
2023-09-06T08:39:40.764Z,27.44
2023-09-06T08:44:49.824Z,27.01
2023-09-06T08:49:58.028Z,27.16
2023-09-06T08:55:00.971Z,27.07
2023-09-06T09:00:16.657Z,27.19
2023-09-06T09:05:23.387Z,27.40
2023-09-06T09:10:32.956Z,27.49
2023-09-06T09:15:37.163Z,26.67
2023-09-06T09:20:47.793Z,27.58
2023-09-06T09:25:53.326Z,27.36
2023-09-06T09:30:59.955Z,27.33
2023-09-06T09:36:07.793Z,27.29
2023-09-06T09:41:12.303Z,27.18
2023-09-06T09:46:29.067Z,27.40
2023-09-06T09:51:35.485Z,27.47
2023-09-06T09:56:43.332Z,27.07
2023-09-06T10:01:46.431Z,27.05
2023-09-06T10:06:52.632Z,27.22
2023-09-06T10:12:00.952Z,27.14
2023-09-06T10:17:05.970Z,27.06
2023-09-06T10:22:16.529Z,27.25
2023-09-06T10:27:33.559Z,27.53
2023-09-06T10:32:47.299Z,27.75
2023-09-06T10:38:19.589Z,29.74
2023-09-06T10:43:29.299Z,32.07
2023-09-06T10:48:34.222Z,33.69
2023-09-06T10:54:08.304Z,34.99
2023-09-06T10:59:22.733Z,35.97
2023-09-06T11:04:28.864Z,36.87
2023-09-06T11:09:31.770Z,37.12
2023-09-06T11:14:35.054Z,37.52
2023-09-06T11:19:41.192Z,37.65
2023-09-06T11:24:45.614Z,38.10
2023-09-06T11:30:08.214Z,38.39
2023-09-06T11:35:12.315Z,38.35
2023-09-06T11:40:16.630Z,38.71
2023-09-06T11:45:25.943Z,39.07
2023-09-06T11:55:33.611Z,39.78
2023-09-06T12:00:49.461Z,39.76
2023-09-06T12:05:54.827Z,40.00
2023-09-06T12:11:11.609Z,40.24
2023-09-06T12:16:16.821Z,40.59
2023-09-06T12:21:22.858Z,40.77
2023-09-06T12:26:26.405Z,41.26
2023-09-06T12:31:29.961Z,41.93
2023-09-06T12:36:33.276Z,42.14
2023-09-06T12:41:40.684Z,42.59
2023-09-06T12:46:43.596Z,42.84
2023-09-06T12:51:49.285Z,43.50
2023-09-06T12:56:56.323Z,43.75
2023-09-06T13:01:59.114Z,43.69
2023-09-06T13:07:04.926Z,43.74
2023-09-06T13:12:10.784Z,43.50
2023-09-06T13:17:17.116Z,43.68
2023-09-06T13:22:20.216Z,43.39
2023-09-06T13:27:23.089Z,43.61
2023-09-06T13:32:32.135Z,44.30
2023-09-06T13:37:34.861Z,44.41
2023-09-06T13:42:38.007Z,44.34
2023-09-06T13:47:44.622Z,44.70
2023-09-06T13:52:48.980Z,45.21
2023-09-06T13:57:54.462Z,45.70
2023-09-06T14:02:57.480Z,46.24
2023-09-06T14:08:06.097Z,46.59
2023-09-06T14:13:08.840Z,47.11
2023-09-06T14:18:16.352Z,47.43
2023-09-06T14:23:23.604Z,48.23
2023-09-06T14:28:26.459Z,49.13
2023-09-06T14:33:38.250Z,49.23
2023-09-06T14:38:41.165Z,50.05
2023-09-06T14:43:45.264Z,51.13
2023-09-06T14:48:48.137Z,51.11
2023-09-06T14:53:57.202Z,51.22
2023-09-06T14:59:02.650Z,51.25
2023-09-06T15:04:07.219Z,51.42
2023-09-06T15:09:10.264Z,51.63
2023-09-06T15:14:13.532Z,51.47
2023-09-06T15:19:16.468Z,51.60
2023-09-06T15:24:19.863Z,50.94
2023-09-06T15:29:22.706Z,50.03
2023-09-06T15:34:28.171Z,49.50
2023-09-06T15:39:31.415Z,49.05
2023-09-06T15:44:36.421Z,48.49
2023-09-06T15:49:39.314Z,47.68
2023-09-06T15:54:45.333Z,47.38
2023-09-06T15:59:53.541Z,47.55
2023-09-06T16:04:56.891Z,47.71
2023-09-06T16:10:01.609Z,47.74
2023-09-06T16:15:05.847Z,48.12
2023-09-06T16:20:11.572Z,48.41
2023-09-06T16:25:14.454Z,49.01
2023-09-06T16:30:23.336Z,50.23
2023-09-06T16:35:34.057Z,51.37
2023-09-06T16:40:43.052Z,52.60
2023-09-06T16:45:45.898Z,54.14
2023-09-06T16:50:51.169Z,55.10
2023-09-06T16:55:56.330Z,55.86
2023-09-06T17:01:01.193Z,56.36
2023-09-06T17:06:04.257Z,56.70
2023-09-06T17:11:19.707Z,57.71
2023-09-06T17:16:24.876Z,58.18
2023-09-06T17:21:32.467Z,58.28
2023-09-06T17:26:42.819Z,59.40
2023-09-06T17:31:49.850Z,59.25
2023-09-06T17:36:56.561Z,58.98
2023-09-06T17:42:02.037Z,59.85
2023-09-06T17:47:08.158Z,60.87
2023-09-06T17:52:12.118Z,61.47
2023-09-06T17:57:17.489Z,62.46
2023-09-06T18:02:21.080Z,60.92
2023-09-06T18:07:23.933Z,62.52
2023-09-06T18:12:29.522Z,62.53
2023-09-06T18:17:32.419Z,61.87
2023-09-06T18:22:38.026Z,61.28
2023-09-06T18:27:41.620Z,61.70
2023-09-06T18:32:46.888Z,61.75
2023-09-06T18:37:50.717Z,61.98
2023-09-06T18:42:53.615Z,61.30
2023-09-06T18:48:01.067Z,60.65
2023-09-06T18:53:09.334Z,61.25
2023-09-06T18:58:14.842Z,60.98
2023-09-06T19:03:21.419Z,62.33
2023-09-06T19:08:24.469Z,62.60
2023-09-06T19:13:28.574Z,62.88
2023-09-06T19:18:34.140Z,62.91
2023-09-06T19:23:37.428Z,63.45
2023-09-06T19:28:44.032Z,63.58
2023-09-06T19:33:51.671Z,63.76
2023-09-06T19:38:54.547Z,64.68
2023-09-06T19:43:59.223Z,64.38
2023-09-06T19:49:09.712Z,61.61
2023-09-06T19:54:15.103Z,61.95
2023-09-06T19:59:19.769Z,62.00
2023-09-06T20:04:22.974Z,63.02
2023-09-06T20:09:30.536Z,64.61
2023-09-06T20:14:35.888Z,64.38
2023-09-06T20:19:39.968Z,64.32
2023-09-06T20:24:43.951Z,64.61
2023-09-06T20:29:48.470Z,64.91
2023-09-06T20:34:51.654Z,65.54
2023-09-06T20:39:59.729Z,66.70
2023-09-06T20:45:02.644Z,65.92
2023-09-06T20:50:15.816Z,67.25
2023-09-06T20:55:18.847Z,65.78
2023-09-06T21:00:28.787Z,65.06
2023-09-06T21:05:33.080Z,65.55
2023-09-06T21:10:36.677Z,66.55
2023-09-06T21:15:39.474Z,65.85
2023-09-06T21:20:42.768Z,66.92
2023-09-06T21:25:45.600Z,67.87
2023-09-06T21:30:52.400Z,68.35
2023-09-06T21:35:58.289Z,67.48
2023-09-06T21:41:02.458Z,70.36
2023-09-06T21:46:06.574Z,70.70
2023-09-06T21:51:14.769Z,72.44
2023-09-06T21:56:17.750Z,71.29
2023-09-06T22:01:23.021Z,68.16
2023-09-06T22:06:31.460Z,70.13
2023-09-06T22:11:38.842Z,71.21
2023-09-06T22:16:46.612Z,72.51
2023-09-06T22:21:52.699Z,73.48
2023-09-06T22:26:55.417Z,72.87
2023-09-06T22:32:01.885Z,75.53
2023-09-06T22:37:06.546Z,76.53
2023-09-06T22:42:12.682Z,76.92
2023-09-06T22:47:15.555Z,76.54
2023-09-06T22:52:18.895Z,77.42
2023-09-06T22:57:21.950Z,77.96
2023-09-06T23:02:53.880Z,78.22
2023-09-06T23:07:56.856Z,78.56
2023-09-06T23:13:02.199Z,79.06
2023-09-06T23:18:11.062Z,79.43
2023-09-06T23:23:18.098Z,79.81
2023-09-06T23:28:27.588Z,80.00
2023-09-06T23:33:42.643Z,80.22
2023-09-06T23:38:46.722Z,80.37
2023-09-06T23:43:52.793Z,80.61
2023-09-06T23:48:57.683Z,80.76
2023-09-06T23:54:00.482Z,80.92
2023-09-06T23:59:05.202Z,80.87
